sensor_id;sensor_type;location;lat;lon;timestamp;P1;durP1;ratioP1;P2;durP2;ratioP2
10416;SDS011;62605;49.432;8.680;2023-02-28T00:00:40;0.73;;;0.53;;
10416;SDS011;62605;49.432;8.680;2023-02-28T00:03:08;2.23;;;1.23;;
10416;SDS011;62605;49.432;8.680;2023-02-28T00:05:35;0.80;;;0.80;;
10416;SDS011;62605;49.432;8.680;2023-02-28T00:08:03;1.67;;;1.17;;
10416;SDS011;62605;49.432;8.680;2023-02-28T00:10:32;0.50;;;0.50;;
10416;SDS011;62605;49.432;8.680;2023-02-28T00:13:00;2.23;;;1.03;;
10416;SDS011;62605;49.432;8.680;2023-02-28T00:15:29;1.33;;;0.73;;
10416;SDS011;62605;49.432;8.680;2023-02-28T00:17:56;1.03;;;0.90;;
10416;SDS011;62605;49.432;8.680;2023-02-28T00:20:23;1.90;;;1.03;;
10416;SDS011;62605;49.432;8.680;2023-02-28T00:22:52;2.10;;;1.03;;
10416;SDS011;62605;49.432;8.680;2023-02-28T00:25:20;1.70;;;0.73;;
10416;SDS011;62605;49.432;8.680;2023-02-28T00:27:50;2.20;;;0.90;;
10416;SDS011;62605;49.432;8.680;2023-02-28T00:30:17;2.10;;;0.87;;
10416;SDS011;62605;49.432;8.680;2023-02-28T00:32:46;1.20;;;1.20;;
10416;SDS011;62605;49.432;8.680;2023-02-28T00:35:13;4.60;;;0.80;;
10416;SDS011;62605;49.432;8.680;2023-02-28T00:37:41;0.93;;;0.87;;
10416;SDS011;62605;49.432;8.680;2023-02-28T00:40:09;0.73;;;0.73;;
10416;SDS011;62605;49.432;8.680;2023-02-28T00:42:37;0.70;;;0.70;;
10416;SDS011;62605;49.432;8.680;2023-02-28T00:45:07;2.40;;;0.77;;
10416;SDS011;62605;49.432;8.680;2023-02-28T00:47:34;1.30;;;0.70;;
10416;SDS011;62605;49.432;8.680;2023-02-28T00:50:02;2.20;;;1.00;;
10416;SDS011;62605;49.432;8.680;2023-02-28T00:52:30;1.13;;;1.00;;
10416;SDS011;62605;49.432;8.680;2023-02-28T00:54:57;0.90;;;0.90;;
10416;SDS011;62605;49.432;8.680;2023-02-28T00:57:24;2.30;;;1.00;;
10416;SDS011;62605;49.432;8.680;2023-02-28T00:59:51;0.80;;;0.80;;
10416;SDS011;62605;49.432;8.680;2023-02-28T01:02:21;0.70;;;0.70;;
10416;SDS011;62605;49.432;8.680;2023-02-28T01:04:49;3.53;;;0.87;;
10416;SDS011;62605;49.432;8.680;2023-02-28T01:07:18;1.00;;;0.80;;
10416;SDS011;62605;49.432;8.680;2023-02-28T01:09:45;3.10;;;0.83;;
10416;SDS011;62605;49.432;8.680;2023-02-28T01:12:12;1.40;;;1.13;;
10416;SDS011;62605;49.432;8.680;2023-02-28T01:14:40;1.37;;;1.00;;
10416;SDS011;62605;49.432;8.680;2023-02-28T01:17:07;1.10;;;1.00;;
10416;SDS011;62605;49.432;8.680;2023-02-28T01:19:36;1.37;;;0.87;;
10416;SDS011;62605;49.432;8.680;2023-02-28T01:22:03;0.77;;;0.77;;
10416;SDS011;62605;49.432;8.680;2023-02-28T01:24:32;2.20;;;1.10;;
10416;SDS011;62605;49.432;8.680;2023-02-28T01:26:59;2.20;;;1.03;;
10416;SDS011;62605;49.432;8.680;2023-02-28T01:29:26;0.80;;;0.80;;
10416;SDS011;62605;49.432;8.680;2023-02-28T01:31:53;1.20;;;1.10;;
10416;SDS011;62605;49.432;8.680;2023-02-28T01:34:22;0.77;;;0.73;;
10416;SDS011;62605;49.432;8.680;2023-02-28T01:36:51;0.87;;;0.87;;
10416;SDS011;62605;49.432;8.680;2023-02-28T01:39:18;1.63;;;0.87;;
10416;SDS011;62605;49.432;8.680;2023-02-28T01:41:45;1.60;;;0.97;;
10416;SDS011;62605;49.432;8.680;2023-02-28T01:47:16;0.77;;;0.70;;
10416;SDS011;62605;49.432;8.680;2023-02-28T01:49:44;1.53;;;1.30;;
10416;SDS011;62605;49.432;8.680;2023-02-28T01:52:12;2.57;;;1.40;;
10416;SDS011;62605;49.432;8.680;2023-02-28T01:54:47;0.90;;;0.90;;
10416;SDS011;62605;49.432;8.680;2023-02-28T01:57:18;2.43;;;1.27;;
10416;SDS011;62605;49.432;8.680;2023-02-28T01:59:50;1.37;;;1.13;;
10416;SDS011;62605;49.432;8.680;2023-02-28T02:02:21;1.37;;;1.20;;
10416;SDS011;62605;49.432;8.680;2023-02-28T02:04:50;1.73;;;1.27;;
10416;SDS011;62605;49.432;8.680;2023-02-28T02:07:22;2.17;;;1.10;;
10416;SDS011;62605;49.432;8.680;2023-02-28T02:09:56;1.13;;;0.97;;
10416;SDS011;62605;49.432;8.680;2023-02-28T02:12:29;4.40;;;0.97;;
10416;SDS011;62605;49.432;8.680;2023-02-28T02:15:09;1.10;;;1.00;;
10416;SDS011;62605;49.432;8.680;2023-02-28T02:17:42;1.10;;;1.00;;
10416;SDS011;62605;49.432;8.680;2023-02-28T02:23:09;1.40;;;1.10;;
10416;SDS011;62605;49.432;8.680;2023-02-28T02:25:53;0.70;;;0.70;;
10416;SDS011;62605;49.432;8.680;2023-02-28T02:31:41;1.23;;;0.90;;
10416;SDS011;62605;49.432;8.680;2023-02-28T02:34:40;1.37;;;1.27;;
10416;SDS011;62605;49.432;8.680;2023-02-28T02:37:14;1.17;;;1.03;;
10416;SDS011;62605;49.432;8.680;2023-02-28T02:39:50;1.63;;;1.40;;
10416;SDS011;62605;49.432;8.680;2023-02-28T02:42:24;2.60;;;1.33;;
10416;SDS011;62605;49.432;8.680;2023-02-28T02:44:56;2.17;;;1.50;;
10416;SDS011;62605;49.432;8.680;2023-02-28T02:47:27;0.97;;;0.97;;
10416;SDS011;62605;49.432;8.680;2023-02-28T02:49:59;1.40;;;1.20;;
10416;SDS011;62605;49.432;8.680;2023-02-28T02:52:32;1.93;;;1.60;;
10416;SDS011;62605;49.432;8.680;2023-02-28T02:55:03;1.57;;;1.17;;
10416;SDS011;62605;49.432;8.680;2023-02-28T02:57:33;1.33;;;1.23;;
10416;SDS011;62605;49.432;8.680;2023-02-28T03:00:05;2.67;;;1.20;;
10416;SDS011;62605;49.432;8.680;2023-02-28T03:02:34;1.27;;;1.27;;
10416;SDS011;62605;49.432;8.680;2023-02-28T03:08:19;1.93;;;1.20;;
10416;SDS011;62605;49.432;8.680;2023-02-28T03:11:14;2.43;;;1.13;;
10416;SDS011;62605;49.432;8.680;2023-02-28T03:14:31;4.17;;;0.90;;
10416;SDS011;62605;49.432;8.680;2023-02-28T03:20:35;1.47;;;0.90;;
10416;SDS011;62605;49.432;8.680;2023-02-28T03:23:34;2.03;;;1.17;;
10416;SDS011;62605;49.432;8.680;2023-02-28T03:26:11;1.70;;;1.57;;
10416;SDS011;62605;49.432;8.680;2023-02-28T03:28:46;5.17;;;1.93;;
10416;SDS011;62605;49.432;8.680;2023-02-28T03:31:45;1.10;;;0.83;;
10416;SDS011;62605;49.432;8.680;2023-02-28T03:34:41;2.10;;;1.40;;
10416;SDS011;62605;49.432;8.680;2023-02-28T03:37:42;4.63;;;1.60;;
10416;SDS011;62605;49.432;8.680;2023-02-28T03:40:25;1.30;;;1.10;;
10416;SDS011;62605;49.432;8.680;2023-02-28T03:43:55;2.80;;;1.70;;
10416;SDS011;62605;49.432;8.680;2023-02-28T03:46:23;1.57;;;1.40;;
10416;SDS011;62605;49.432;8.680;2023-02-28T03:48:53;1.13;;;1.03;;
10416;SDS011;62605;49.432;8.680;2023-02-28T03:51:25;1.73;;;1.33;;
10416;SDS011;62605;49.432;8.680;2023-02-28T03:53:56;1.73;;;1.50;;
10416;SDS011;62605;49.432;8.680;2023-02-28T03:56:29;2.73;;;1.73;;
10416;SDS011;62605;49.432;8.680;2023-02-28T03:59:00;1.90;;;1.27;;
10416;SDS011;62605;49.432;8.680;2023-02-28T04:01:32;1.27;;;1.17;;
10416;SDS011;62605;49.432;8.680;2023-02-28T04:07:28;1.40;;;1.27;;
10416;SDS011;62605;49.432;8.680;2023-02-28T04:09:56;1.70;;;1.13;;
10416;SDS011;62605;49.432;8.680;2023-02-28T04:12:25;1.33;;;1.03;;
10416;SDS011;62605;49.432;8.680;2023-02-28T04:14:52;1.77;;;1.63;;
10416;SDS011;62605;49.432;8.680;2023-02-28T04:17:19;3.47;;;1.50;;
10416;SDS011;62605;49.432;8.680;2023-02-28T04:19:47;3.37;;;1.47;;
10416;SDS011;62605;49.432;8.680;2023-02-28T04:22:14;2.40;;;1.30;;
10416;SDS011;62605;49.432;8.680;2023-02-28T04:24:42;2.00;;;1.60;;
10416;SDS011;62605;49.432;8.680;2023-02-28T04:27:19;2.23;;;1.77;;
10416;SDS011;62605;49.432;8.680;2023-02-28T04:29:47;1.60;;;1.13;;
10416;SDS011;62605;49.432;8.680;2023-02-28T04:32:14;2.20;;;1.37;;
10416;SDS011;62605;49.432;8.680;2023-02-28T04:34:41;2.33;;;1.90;;
10416;SDS011;62605;49.432;8.680;2023-02-28T04:37:08;1.77;;;1.40;;
10416;SDS011;62605;49.432;8.680;2023-02-28T04:39:36;3.37;;;1.87;;
10416;SDS011;62605;49.432;8.680;2023-02-28T04:42:03;1.60;;;1.50;;
10416;SDS011;62605;49.432;8.680;2023-02-28T04:44:30;2.00;;;1.60;;
10416;SDS011;62605;49.432;8.680;2023-02-28T04:46:59;1.97;;;1.47;;
10416;SDS011;62605;49.432;8.680;2023-02-28T04:49:26;1.60;;;1.30;;
10416;SDS011;62605;49.432;8.680;2023-02-28T04:51:53;2.10;;;1.30;;
10416;SDS011;62605;49.432;8.680;2023-02-28T04:54:20;3.17;;;1.40;;
10416;SDS011;62605;49.432;8.680;2023-02-28T04:56:47;1.70;;;1.37;;
10416;SDS011;62605;49.432;8.680;2023-02-28T04:59:14;1.30;;;1.20;;
10416;SDS011;62605;49.432;8.680;2023-02-28T05:01:45;1.83;;;1.53;;
10416;SDS011;62605;49.432;8.680;2023-02-28T05:04:15;1.33;;;1.23;;
10416;SDS011;62605;49.432;8.680;2023-02-28T05:06:42;2.00;;;1.03;;
10416;SDS011;62605;49.432;8.680;2023-02-28T05:09:09;1.20;;;1.10;;
10416;SDS011;62605;49.432;8.680;2023-02-28T05:11:37;1.90;;;1.57;;
10416;SDS011;62605;49.432;8.680;2023-02-28T05:14:06;5.83;;;1.70;;
10416;SDS011;62605;49.432;8.680;2023-02-28T05:16:35;2.83;;;1.60;;
10416;SDS011;62605;49.432;8.680;2023-02-28T05:19:02;1.97;;;1.30;;
10416;SDS011;62605;49.432;8.680;2023-02-28T05:21:31;2.33;;;1.33;;
10416;SDS011;62605;49.432;8.680;2023-02-28T05:24:00;1.77;;;1.57;;
10416;SDS011;62605;49.432;8.680;2023-02-28T05:26:29;2.53;;;1.50;;
10416;SDS011;62605;49.432;8.680;2023-02-28T05:29:15;2.43;;;1.70;;
10416;SDS011;62605;49.432;8.680;2023-02-28T05:31:44;3.40;;;1.67;;
10416;SDS011;62605;49.432;8.680;2023-02-28T05:34:17;3.30;;;1.50;;
10416;SDS011;62605;49.432;8.680;2023-02-28T05:36:47;3.10;;;1.87;;
10416;SDS011;62605;49.432;8.680;2023-02-28T05:39:14;2.17;;;1.37;;
10416;SDS011;62605;49.432;8.680;2023-02-28T05:41:43;1.37;;;1.33;;
10416;SDS011;62605;49.432;8.680;2023-02-28T05:44:15;1.93;;;1.57;;
10416;SDS011;62605;49.432;8.680;2023-02-28T05:46:42;5.33;;;1.27;;
10416;SDS011;62605;49.432;8.680;2023-02-28T05:49:09;4.27;;;1.40;;
10416;SDS011;62605;49.432;8.680;2023-02-28T05:51:36;5.20;;;1.47;;
10416;SDS011;62605;49.432;8.680;2023-02-28T05:54:11;1.37;;;1.23;;
10416;SDS011;62605;49.432;8.680;2023-02-28T05:56:39;1.73;;;0.77;;
10416;SDS011;62605;49.432;8.680;2023-02-28T05:59:09;2.37;;;1.93;;
10416;SDS011;62605;49.432;8.680;2023-02-28T06:01:38;1.97;;;1.60;;
10416;SDS011;62605;49.432;8.680;2023-02-28T06:04:07;2.03;;;1.50;;
10416;SDS011;62605;49.432;8.680;2023-02-28T06:06:39;1.83;;;1.70;;
10416;SDS011;62605;49.432;8.680;2023-02-28T06:09:08;1.97;;;1.73;;
10416;SDS011;62605;49.432;8.680;2023-02-28T06:11:35;3.03;;;1.80;;
10416;SDS011;62605;49.432;8.680;2023-02-28T06:14:02;3.80;;;2.27;;
10416;SDS011;62605;49.432;8.680;2023-02-28T06:16:30;1.17;;;1.13;;
10416;SDS011;62605;49.432;8.680;2023-02-28T06:18:59;3.17;;;1.30;;
10416;SDS011;62605;49.432;8.680;2023-02-28T06:21:29;2.53;;;1.63;;
10416;SDS011;62605;49.432;8.680;2023-02-28T06:23:57;1.20;;;1.13;;
10416;SDS011;62605;49.432;8.680;2023-02-28T06:26:26;1.63;;;0.90;;
10416;SDS011;62605;49.432;8.680;2023-02-28T06:28:53;2.93;;;1.57;;
10416;SDS011;62605;49.432;8.680;2023-02-28T06:31:21;2.00;;;1.20;;
10416;SDS011;62605;49.432;8.680;2023-02-28T06:33:50;2.73;;;1.80;;
10416;SDS011;62605;49.432;8.680;2023-02-28T06:36:18;3.57;;;1.93;;
10416;SDS011;62605;49.432;8.680;2023-02-28T06:38:45;1.17;;;1.17;;
10416;SDS011;62605;49.432;8.680;2023-02-28T06:41:16;1.10;;;1.10;;
10416;SDS011;62605;49.432;8.680;2023-02-28T06:43:47;1.60;;;1.50;;
10416;SDS011;62605;49.432;8.680;2023-02-28T06:46:14;3.30;;;1.60;;
10416;SDS011;62605;49.432;8.680;2023-02-28T06:48:42;2.87;;;2.00;;
10416;SDS011;62605;49.432;8.680;2023-02-28T06:51:11;2.87;;;1.80;;
10416;SDS011;62605;49.432;8.680;2023-02-28T06:53:40;3.00;;;1.67;;
10416;SDS011;62605;49.432;8.680;2023-02-28T06:56:09;1.80;;;1.70;;
10416;SDS011;62605;49.432;8.680;2023-02-28T06:58:38;2.93;;;2.00;;
10416;SDS011;62605;49.432;8.680;2023-02-28T07:01:06;2.73;;;1.93;;
10416;SDS011;62605;49.432;8.680;2023-02-28T07:03:34;2.23;;;2.03;;
10416;SDS011;62605;49.432;8.680;2023-02-28T07:06:04;2.63;;;1.73;;
10416;SDS011;62605;49.432;8.680;2023-02-28T07:08:32;3.77;;;2.10;;
10416;SDS011;62605;49.432;8.680;2023-02-28T07:11:00;3.43;;;2.23;;
10416;SDS011;62605;49.432;8.680;2023-02-28T07:13:28;3.30;;;1.80;;
10416;SDS011;62605;49.432;8.680;2023-02-28T07:15:56;3.07;;;2.20;;
10416;SDS011;62605;49.432;8.680;2023-02-28T07:18:28;2.17;;;1.77;;
10416;SDS011;62605;49.432;8.680;2023-02-28T07:20:56;2.23;;;1.73;;
10416;SDS011;62605;49.432;8.680;2023-02-28T07:23:23;2.57;;;1.67;;
10416;SDS011;62605;49.432;8.680;2023-02-28T07:25:54;2.70;;;1.70;;
10416;SDS011;62605;49.432;8.680;2023-02-28T07:28:21;1.97;;;1.37;;
10416;SDS011;62605;49.432;8.680;2023-02-28T07:30:49;2.30;;;1.60;;
10416;SDS011;62605;49.432;8.680;2023-02-28T07:33:16;3.17;;;2.07;;
10416;SDS011;62605;49.432;8.680;2023-02-28T07:35:44;3.37;;;1.93;;
10416;SDS011;62605;49.432;8.680;2023-02-28T07:38:12;3.33;;;1.90;;
10416;SDS011;62605;49.432;8.680;2023-02-28T07:40:39;3.67;;;2.23;;
10416;SDS011;62605;49.432;8.680;2023-02-28T07:43:06;2.80;;;1.63;;
10416;SDS011;62605;49.432;8.680;2023-02-28T07:45:33;1.57;;;1.37;;
10416;SDS011;62605;49.432;8.680;2023-02-28T07:48:01;2.73;;;2.00;;
10416;SDS011;62605;49.432;8.680;2023-02-28T07:50:28;4.03;;;1.70;;
10416;SDS011;62605;49.432;8.680;2023-02-28T07:52:57;3.93;;;2.10;;
10416;SDS011;62605;49.432;8.680;2023-02-28T07:55:25;3.97;;;1.90;;
10416;SDS011;62605;49.432;8.680;2023-02-28T07:57:52;3.07;;;1.87;;
10416;SDS011;62605;49.432;8.680;2023-02-28T08:00:19;2.07;;;1.63;;
10416;SDS011;62605;49.432;8.680;2023-02-28T08:02:48;2.93;;;2.30;;
10416;SDS011;62605;49.432;8.680;2023-02-28T08:05:15;4.17;;;1.90;;
10416;SDS011;62605;49.432;8.680;2023-02-28T08:07:42;6.17;;;2.47;;
10416;SDS011;62605;49.432;8.680;2023-02-28T08:10:11;2.10;;;1.83;;
10416;SDS011;62605;49.432;8.680;2023-02-28T08:12:38;3.80;;;2.00;;
10416;SDS011;62605;49.432;8.680;2023-02-28T08:15:06;2.50;;;2.10;;
10416;SDS011;62605;49.432;8.680;2023-02-28T08:17:34;2.10;;;1.90;;
10416;SDS011;62605;49.432;8.680;2023-02-28T08:20:01;3.37;;;2.00;;
10416;SDS011;62605;49.432;8.680;2023-02-28T08:22:29;3.13;;;1.70;;
10416;SDS011;62605;49.432;8.680;2023-02-28T08:24:56;5.20;;;2.00;;
10416;SDS011;62605;49.432;8.680;2023-02-28T08:27:24;2.33;;;1.80;;
10416;SDS011;62605;49.432;8.680;2023-02-28T08:29:51;2.37;;;1.60;;
10416;SDS011;62605;49.432;8.680;2023-02-28T08:32:18;3.10;;;2.07;;
10416;SDS011;62605;49.432;8.680;2023-02-28T08:34:45;3.20;;;2.30;;
10416;SDS011;62605;49.432;8.680;2023-02-28T08:37:12;3.33;;;2.20;;
10416;SDS011;62605;49.432;8.680;2023-02-28T08:39:39;3.73;;;2.37;;
10416;SDS011;62605;49.432;8.680;2023-02-28T08:42:07;3.97;;;2.17;;
10416;SDS011;62605;49.432;8.680;2023-02-28T08:44:35;2.07;;;1.93;;
10416;SDS011;62605;49.432;8.680;2023-02-28T08:47:02;3.70;;;2.60;;
10416;SDS011;62605;49.432;8.680;2023-02-28T08:49:30;3.33;;;2.33;;
10416;SDS011;62605;49.432;8.680;2023-02-28T08:51:57;2.40;;;2.13;;
10416;SDS011;62605;49.432;8.680;2023-02-28T08:54:24;2.60;;;2.10;;
10416;SDS011;62605;49.432;8.680;2023-02-28T08:56:51;4.30;;;2.47;;
10416;SDS011;62605;49.432;8.680;2023-02-28T08:59:18;4.50;;;2.60;;
10416;SDS011;62605;49.432;8.680;2023-02-28T09:01:47;4.50;;;2.33;;
10416;SDS011;62605;49.432;8.680;2023-02-28T09:04:14;1.57;;;1.47;;
10416;SDS011;62605;49.432;8.680;2023-02-28T09:06:41;2.67;;;2.07;;
10416;SDS011;62605;49.432;8.680;2023-02-28T09:09:09;2.50;;;1.67;;
10416;SDS011;62605;49.432;8.680;2023-02-28T09:11:36;3.57;;;2.13;;
10416;SDS011;62605;49.432;8.680;2023-02-28T09:14:04;3.97;;;2.73;;
10416;SDS011;62605;49.432;8.680;2023-02-28T09:16:31;4.00;;;2.17;;
10416;SDS011;62605;49.432;8.680;2023-02-28T09:19:01;3.47;;;2.60;;
10416;SDS011;62605;49.432;8.680;2023-02-28T09:21:28;3.93;;;2.20;;
10416;SDS011;62605;49.432;8.680;2023-02-28T09:23:55;6.70;;;2.20;;
10416;SDS011;62605;49.432;8.680;2023-02-28T09:26:23;3.57;;;2.37;;
10416;SDS011;62605;49.432;8.680;2023-02-28T09:28:52;2.37;;;2.00;;
10416;SDS011;62605;49.432;8.680;2023-02-28T09:31:20;2.03;;;1.67;;
10416;SDS011;62605;49.432;8.680;2023-02-28T09:33:49;4.67;;;2.20;;
10416;SDS011;62605;49.432;8.680;2023-02-28T09:36:18;3.93;;;2.50;;
10416;SDS011;62605;49.432;8.680;2023-02-28T09:38:46;3.00;;;2.23;;
10416;SDS011;62605;49.432;8.680;2023-02-28T09:41:15;4.27;;;2.30;;
10416;SDS011;62605;49.432;8.680;2023-02-28T09:43:44;3.83;;;2.37;;
10416;SDS011;62605;49.432;8.680;2023-02-28T09:48:58;2.40;;;1.83;;
10416;SDS011;62605;49.432;8.680;2023-02-28T09:51:36;3.40;;;2.30;;
10416;SDS011;62605;49.432;8.680;2023-02-28T09:54:14;3.07;;;2.27;;
10416;SDS011;62605;49.432;8.680;2023-02-28T09:56:44;3.63;;;2.00;;
10416;SDS011;62605;49.432;8.680;2023-02-28T09:59:18;3.63;;;2.43;;
10416;SDS011;62605;49.432;8.680;2023-02-28T10:02:00;3.40;;;2.30;;
10416;SDS011;62605;49.432;8.680;2023-02-28T10:04:40;4.60;;;2.30;;
10416;SDS011;62605;49.432;8.680;2023-02-28T10:07:20;4.27;;;2.77;;
10416;SDS011;62605;49.432;8.680;2023-02-28T10:09:54;3.87;;;2.27;;
10416;SDS011;62605;49.432;8.680;2023-02-28T10:12:24;4.13;;;2.37;;
10416;SDS011;62605;49.432;8.680;2023-02-28T10:14:54;3.37;;;2.37;;
10416;SDS011;62605;49.432;8.680;2023-02-28T10:17:25;5.17;;;2.33;;
10416;SDS011;62605;49.432;8.680;2023-02-28T10:19:58;5.20;;;2.00;;
10416;SDS011;62605;49.432;8.680;2023-02-28T10:22:35;4.27;;;2.90;;
10416;SDS011;62605;49.432;8.680;2023-02-28T10:25:11;4.30;;;2.30;;
10416;SDS011;62605;49.432;8.680;2023-02-28T10:27:44;3.77;;;2.27;;
10416;SDS011;62605;49.432;8.680;2023-02-28T10:30:11;3.10;;;2.07;;
10416;SDS011;62605;49.432;8.680;2023-02-28T10:32:40;4.17;;;2.20;;
10416;SDS011;62605;49.432;8.680;2023-02-28T10:35:14;3.37;;;2.20;;
10416;SDS011;62605;49.432;8.680;2023-02-28T10:37:47;2.73;;;2.47;;
10416;SDS011;62605;49.432;8.680;2023-02-28T10:40:27;4.40;;;2.73;;
10416;SDS011;62605;49.432;8.680;2023-02-28T10:42:58;4.87;;;2.83;;
10416;SDS011;62605;49.432;8.680;2023-02-28T10:45:28;4.80;;;3.03;;
10416;SDS011;62605;49.432;8.680;2023-02-28T10:47:57;3.57;;;2.50;;
10416;SDS011;62605;49.432;8.680;2023-02-28T10:50:32;3.40;;;2.60;;
10416;SDS011;62605;49.432;8.680;2023-02-28T10:53:22;4.40;;;2.93;;
10416;SDS011;62605;49.432;8.680;2023-02-28T10:55:59;3.80;;;2.23;;
10416;SDS011;62605;49.432;8.680;2023-02-28T10:58:33;3.60;;;2.93;;
10416;SDS011;62605;49.432;8.680;2023-02-28T11:01:14;6.53;;;3.30;;
10416;SDS011;62605;49.432;8.680;2023-02-28T11:03:43;2.50;;;1.90;;
10416;SDS011;62605;49.432;8.680;2023-02-28T11:06:13;2.30;;;2.10;;
10416;SDS011;62605;49.432;8.680;2023-02-28T11:08:46;4.90;;;2.50;;
10416;SDS011;62605;49.432;8.680;2023-02-28T11:11:16;4.37;;;2.30;;
10416;SDS011;62605;49.432;8.680;2023-02-28T11:13:45;5.00;;;2.50;;
10416;SDS011;62605;49.432;8.680;2023-02-28T11:16:16;4.03;;;2.73;;
10416;SDS011;62605;49.432;8.680;2023-02-28T11:18:48;2.33;;;2.10;;
10416;SDS011;62605;49.432;8.680;2023-02-28T11:21:18;9.97;;;3.97;;
10416;SDS011;62605;49.432;8.680;2023-02-28T11:23:51;4.40;;;2.37;;
10416;SDS011;62605;49.432;8.680;2023-02-28T11:26:39;4.80;;;2.97;;
10416;SDS011;62605;49.432;8.680;2023-02-28T11:29:11;4.93;;;3.10;;
10416;SDS011;62605;49.432;8.680;2023-02-28T11:31:55;3.90;;;2.87;;
10416;SDS011;62605;49.432;8.680;2023-02-28T11:34:29;4.37;;;2.90;;
10416;SDS011;62605;49.432;8.680;2023-02-28T11:36:57;2.43;;;2.23;;
10416;SDS011;62605;49.432;8.680;2023-02-28T11:39:31;5.17;;;3.30;;
10416;SDS011;62605;49.432;8.680;2023-02-28T11:42:02;4.07;;;3.10;;
10416;SDS011;62605;49.432;8.680;2023-02-28T11:44:42;4.23;;;2.87;;
10416;SDS011;62605;49.432;8.680;2023-02-28T11:47:21;5.30;;;3.67;;
10416;SDS011;62605;49.432;8.680;2023-02-28T11:50:00;3.90;;;2.47;;
10416;SDS011;62605;49.432;8.680;2023-02-28T11:52:40;6.63;;;2.77;;
10416;SDS011;62605;49.432;8.680;2023-02-28T11:55:17;4.60;;;3.03;;
10416;SDS011;62605;49.432;8.680;2023-02-28T12:01:01;4.93;;;2.90;;
10416;SDS011;62605;49.432;8.680;2023-02-28T12:03:38;4.43;;;3.00;;
10416;SDS011;62605;49.432;8.680;2023-02-28T12:06:14;4.03;;;2.93;;
10416;SDS011;62605;49.432;8.680;2023-02-28T12:08:49;3.33;;;2.13;;
10416;SDS011;62605;49.432;8.680;2023-02-28T12:11:33;4.47;;;3.03;;
10416;SDS011;62605;49.432;8.680;2023-02-28T12:14:14;4.37;;;2.83;;
10416;SDS011;62605;49.432;8.680;2023-02-28T12:16:58;4.77;;;2.83;;
10416;SDS011;62605;49.432;8.680;2023-02-28T12:19:33;4.73;;;3.10;;
10416;SDS011;62605;49.432;8.680;2023-02-28T12:25:21;4.23;;;3.03;;
10416;SDS011;62605;49.432;8.680;2023-02-28T12:28:13;5.00;;;3.10;;
10416;SDS011;62605;49.432;8.680;2023-02-28T12:30:45;8.10;;;3.30;;
10416;SDS011;62605;49.432;8.680;2023-02-28T12:33:22;8.63;;;3.40;;
10416;SDS011;62605;49.432;8.680;2023-02-28T12:35:55;4.00;;;2.90;;
10416;SDS011;62605;49.432;8.680;2023-02-28T12:38:25;5.80;;;3.13;;
10416;SDS011;62605;49.432;8.680;2023-02-28T12:40:56;4.10;;;3.03;;
10416;SDS011;62605;49.432;8.680;2023-02-28T12:43:30;4.83;;;2.93;;
10416;SDS011;62605;49.432;8.680;2023-02-28T12:46:07;9.17;;;3.33;;
10416;SDS011;62605;49.432;8.680;2023-02-28T12:48:40;4.57;;;3.27;;
10416;SDS011;62605;49.432;8.680;2023-02-28T12:51:09;5.07;;;3.40;;
10416;SDS011;62605;49.432;8.680;2023-02-28T12:53:42;4.27;;;3.30;;
10416;SDS011;62605;49.432;8.680;2023-02-28T12:56:19;4.07;;;3.23;;
10416;SDS011;62605;49.432;8.680;2023-02-28T12:58:59;5.43;;;3.00;;
10416;SDS011;62605;49.432;8.680;2023-02-28T13:01:42;5.70;;;3.30;;
10416;SDS011;62605;49.432;8.680;2023-02-28T13:04:34;4.43;;;2.83;;
10416;SDS011;62605;49.432;8.680;2023-02-28T13:10:15;3.20;;;2.57;;
10416;SDS011;62605;49.432;8.680;2023-02-28T13:12:47;3.57;;;2.73;;
10416;SDS011;62605;49.432;8.680;2023-02-28T13:15:18;3.97;;;2.80;;
10416;SDS011;62605;49.432;8.680;2023-02-28T13:17:49;3.43;;;2.63;;
10416;SDS011;62605;49.432;8.680;2023-02-28T13:20:18;6.67;;;3.77;;
10416;SDS011;62605;49.432;8.680;2023-02-28T13:22:47;5.37;;;3.00;;
10416;SDS011;62605;49.432;8.680;2023-02-28T13:34:35;4.40;;;2.83;;
10416;SDS011;62605;49.432;8.680;2023-02-28T13:43:01;4.00;;;2.90;;
10416;SDS011;62605;49.432;8.680;2023-02-28T13:45:30;4.60;;;3.50;;
10416;SDS011;62605;49.432;8.680;2023-02-28T13:48:03;3.63;;;2.53;;
10416;SDS011;62605;49.432;8.680;2023-02-28T13:50:33;7.60;;;3.93;;
10416;SDS011;62605;49.432;8.680;2023-02-28T13:55:58;3.50;;;2.40;;
10416;SDS011;62605;49.432;8.680;2023-02-28T13:58:46;3.90;;;2.93;;
10416;SDS011;62605;49.432;8.680;2023-02-28T14:01:25;4.33;;;3.33;;
10416;SDS011;62605;49.432;8.680;2023-02-28T14:04:11;6.90;;;3.47;;
10416;SDS011;62605;49.432;8.680;2023-02-28T14:06:56;5.13;;;3.10;;
10416;SDS011;62605;49.432;8.680;2023-02-28T14:09:25;7.00;;;3.03;;
10416;SDS011;62605;49.432;8.680;2023-02-28T14:11:55;5.87;;;3.43;;
10416;SDS011;62605;49.432;8.680;2023-02-28T14:17:23;7.53;;;3.63;;
10416;SDS011;62605;49.432;8.680;2023-02-28T14:19:52;4.80;;;3.10;;
10416;SDS011;62605;49.432;8.680;2023-02-28T14:22:28;6.80;;;3.57;;
10416;SDS011;62605;49.432;8.680;2023-02-28T14:25:22;4.67;;;2.80;;
10416;SDS011;62605;49.432;8.680;2023-02-28T14:28:08;5.07;;;3.30;;
10416;SDS011;62605;49.432;8.680;2023-02-28T14:30:51;7.23;;;3.20;;
10416;SDS011;62605;49.432;8.680;2023-02-28T14:33:34;3.63;;;2.87;;
10416;SDS011;62605;49.432;8.680;2023-02-28T14:36:14;9.43;;;3.37;;
10416;SDS011;62605;49.432;8.680;2023-02-28T14:38:48;4.67;;;3.13;;
10416;SDS011;62605;49.432;8.680;2023-02-28T14:41:20;5.83;;;3.43;;
10416;SDS011;62605;49.432;8.680;2023-02-28T14:43:51;3.90;;;2.93;;
10416;SDS011;62605;49.432;8.680;2023-02-28T14:46:24;6.03;;;3.30;;
10416;SDS011;62605;49.432;8.680;2023-02-28T14:48:54;7.37;;;3.20;;
10416;SDS011;62605;49.432;8.680;2023-02-28T14:51:22;3.90;;;3.10;;
10416;SDS011;62605;49.432;8.680;2023-02-28T14:53:55;6.30;;;3.57;;
10416;SDS011;62605;49.432;8.680;2023-02-28T14:56:25;5.87;;;3.10;;
10416;SDS011;62605;49.432;8.680;2023-02-28T14:58:56;5.20;;;3.23;;
10416;SDS011;62605;49.432;8.680;2023-02-28T15:01:25;5.13;;;3.13;;
10416;SDS011;62605;49.432;8.680;2023-02-28T15:03:59;4.47;;;2.97;;
10416;SDS011;62605;49.432;8.680;2023-02-28T15:06:28;5.33;;;2.83;;
10416;SDS011;62605;49.432;8.680;2023-02-28T15:09:11;3.97;;;3.00;;
10416;SDS011;62605;49.432;8.680;2023-02-28T15:11:42;5.67;;;3.60;;
10416;SDS011;62605;49.432;8.680;2023-02-28T15:14:15;8.17;;;2.83;;
10416;SDS011;62605;49.432;8.680;2023-02-28T15:16:45;5.50;;;3.13;;
10416;SDS011;62605;49.432;8.680;2023-02-28T15:19:18;6.90;;;4.13;;
10416;SDS011;62605;49.432;8.680;2023-02-28T15:21:50;5.80;;;3.50;;
10416;SDS011;62605;49.432;8.680;2023-02-28T15:24:25;5.37;;;3.27;;
10416;SDS011;62605;49.432;8.680;2023-02-28T15:26:58;4.73;;;3.27;;
10416;SDS011;62605;49.432;8.680;2023-02-28T15:29:29;3.77;;;2.80;;
10416;SDS011;62605;49.432;8.680;2023-02-28T15:32:01;5.37;;;3.20;;
10416;SDS011;62605;49.432;8.680;2023-02-28T15:34:33;5.77;;;3.77;;
10416;SDS011;62605;49.432;8.680;2023-02-28T15:37:05;5.47;;;3.40;;
10416;SDS011;62605;49.432;8.680;2023-02-28T15:39:40;5.83;;;3.60;;
10416;SDS011;62605;49.432;8.680;2023-02-28T15:42:10;5.73;;;3.37;;
10416;SDS011;62605;49.432;8.680;2023-02-28T15:44:38;6.17;;;3.17;;
10416;SDS011;62605;49.432;8.680;2023-02-28T15:47:05;5.90;;;4.03;;
10416;SDS011;62605;49.432;8.680;2023-02-28T15:49:45;8.03;;;3.73;;
10416;SDS011;62605;49.432;8.680;2023-02-28T15:52:15;4.57;;;3.37;;
10416;SDS011;62605;49.432;8.680;2023-02-28T15:54:46;5.67;;;3.67;;
10416;SDS011;62605;49.432;8.680;2023-02-28T15:57:14;6.17;;;3.27;;
10416;SDS011;62605;49.432;8.680;2023-02-28T15:59:49;6.10;;;3.37;;
10416;SDS011;62605;49.432;8.680;2023-02-28T16:02:21;3.80;;;3.40;;
10416;SDS011;62605;49.432;8.680;2023-02-28T16:04:58;5.90;;;3.57;;
10416;SDS011;62605;49.432;8.680;2023-02-28T16:07:27;5.97;;;3.03;;